createdAt,value
2023-06-23T00:02:18.803Z,101480.91
2023-06-23T00:04:45.669Z,101479.69
2023-06-23T00:07:12.415Z,101486.03
2023-06-23T00:09:39.266Z,101479.78
2023-06-23T00:12:09.370Z,101478.81
2023-06-23T00:14:36.251Z,101487.88
2023-06-23T00:17:03.972Z,101488.03
2023-06-23T00:19:33.108Z,101482.06
2023-06-23T00:21:59.977Z,101475.97
2023-06-23T00:24:28.298Z,101486.31
2023-06-23T00:26:55.031Z,101473.25
2023-06-23T00:29:22.008Z,101482.13
2023-06-23T00:31:50.864Z,101480.72
2023-06-23T00:34:17.791Z,101477.41
2023-06-23T00:36:44.468Z,101480.81
2023-06-23T00:39:11.184Z,101476.25
2023-06-23T00:41:37.898Z,101471.28
2023-06-23T00:44:08.394Z,101466.88
2023-06-23T00:46:35.518Z,101471.56
2023-06-23T00:49:03.005Z,101466.72
2023-06-23T00:51:30.898Z,101462.16
2023-06-23T00:53:59.547Z,101467.19
2023-06-23T00:56:26.618Z,101473.81
2023-06-23T00:58:55.505Z,101470.81
2023-06-23T01:01:22.241Z,101472.84
2023-06-23T01:03:49.489Z,101466.44
2023-06-23T01:06:38.830Z,101475.72
2023-06-23T01:09:22.002Z,101484.19
2023-06-23T01:12:04.250Z,101474.53
2023-06-23T01:14:51.551Z,101477.09
2023-06-23T01:17:26.067Z,101483.88
2023-06-23T01:20:19.511Z,101483.41
2023-06-23T01:23:04.346Z,101470.81
2023-06-23T01:25:55.640Z,101473.41
2023-06-23T01:28:40.447Z,101467.81
2023-06-23T01:31:10.570Z,101470.03
2023-06-23T01:33:44.767Z,101458.00
2023-06-23T01:36:16.000Z,101458.13
2023-06-23T01:38:48.611Z,101446.50
2023-06-23T01:41:22.747Z,101451.91
2023-06-23T01:43:54.371Z,101457.41
2023-06-23T01:46:27.266Z,101438.66
2023-06-23T01:48:57.223Z,101443.25
2023-06-23T01:51:28.149Z,101437.34
2023-06-23T01:53:56.874Z,101445.75
2023-06-23T01:56:26.989Z,101444.66
2023-06-23T01:58:57.144Z,101424.09
2023-06-23T02:01:25.064Z,101439.91
2023-06-23T02:03:53.628Z,101427.31
2023-06-23T02:06:21.409Z,101414.44
2023-06-23T02:08:50.406Z,101438.94
2023-06-23T02:11:18.397Z,101435.81
2023-06-23T02:13:46.763Z,101444.06
2023-06-23T02:16:14.597Z,101433.41
2023-06-23T02:18:42.630Z,101446.34
2023-06-23T02:21:13.099Z,101435.81
2023-06-23T02:23:40.537Z,101435.88
2023-06-23T02:26:08.764Z,101426.34
2023-06-23T02:28:36.938Z,101434.03
2023-06-23T02:31:07.090Z,101429.59
2023-06-23T02:33:33.911Z,101424.50
2023-06-23T02:36:03.630Z,101417.44
2023-06-23T02:38:31.790Z,101424.69
2023-06-23T02:41:01.005Z,101405.44
2023-06-23T02:43:36.830Z,101412.59
2023-06-23T02:46:07.731Z,101405.19
2023-06-23T02:48:41.058Z,101412.09
2023-06-23T02:51:13.449Z,101397.50
2023-06-23T02:53:49.630Z,101405.13
2023-06-23T02:56:23.413Z,101399.88
2023-06-23T02:58:55.034Z,101398.50
2023-06-23T03:01:23.699Z,101384.84
2023-06-23T03:03:50.893Z,101387.38
2023-06-23T03:06:22.034Z,101393.28
2023-06-23T03:08:49.064Z,101390.00
2023-06-23T03:11:22.357Z,101391.00
2023-06-23T03:13:50.202Z,101401.13
2023-06-23T03:16:23.511Z,101391.44
2023-06-23T03:18:54.751Z,101395.06
2023-06-23T03:21:24.182Z,101384.00
2023-06-23T03:23:56.576Z,101388.38
2023-06-23T03:26:24.407Z,101385.66
2023-06-23T03:28:59.190Z,101383.53
2023-06-23T03:31:27.678Z,101383.63
2023-06-23T03:33:57.394Z,101372.09
2023-06-23T03:36:26.280Z,101377.94
2023-06-23T03:39:02.755Z,101388.19
2023-06-23T03:41:31.174Z,101381.28
2023-06-23T03:44:02.389Z,101382.78
2023-06-23T03:46:53.991Z,101385.88
2023-06-23T03:49:27.767Z,101378.34
2023-06-23T03:51:58.888Z,101369.16
2023-06-23T03:54:27.273Z,101386.19
2023-06-23T03:56:56.332Z,101393.91
2023-06-23T03:59:26.663Z,101388.69
2023-06-23T04:01:55.554Z,101385.03
2023-06-23T04:04:26.563Z,101382.97
2023-06-23T04:06:54.420Z,101389.59
2023-06-23T04:09:22.043Z,101391.53
2023-06-23T04:11:51.456Z,101386.53
2023-06-23T04:14:20.370Z,101388.09
2023-06-23T04:16:50.997Z,101391.03
2023-06-23T04:19:18.983Z,101386.25
2023-06-23T04:21:46.822Z,101379.19
2023-06-23T04:24:15.571Z,101382.00
2023-06-23T04:26:45.259Z,101399.13
2023-06-23T04:29:13.797Z,101384.81
2023-06-23T04:31:42.212Z,101382.09
2023-06-23T04:34:08.953Z,101377.78
2023-06-23T04:36:50.077Z,101372.16
2023-06-23T04:39:28.979Z,101368.41
2023-06-23T04:42:05.515Z,101358.69
2023-06-23T04:44:42.377Z,101362.91
2023-06-23T04:47:11.836Z,101353.97
2023-06-23T04:49:42.110Z,101350.47
2023-06-23T04:52:10.695Z,101352.16
2023-06-23T04:54:42.812Z,101350.50
2023-06-23T04:57:17.831Z,101361.81
2023-06-23T04:59:52.893Z,101361.78
2023-06-23T05:02:21.915Z,101355.88
2023-06-23T05:04:50.929Z,101347.88
2023-06-23T05:07:19.468Z,101355.66
2023-06-23T05:09:50.061Z,101346.53
2023-06-23T05:12:19.708Z,101359.59
2023-06-23T05:14:49.041Z,101358.72
2023-06-23T05:17:17.476Z,101359.84
2023-06-23T05:19:47.309Z,101368.88
2023-06-23T05:22:18.664Z,101369.72
2023-06-23T05:24:53.861Z,101354.19
2023-06-23T05:27:26.007Z,101363.69
2023-06-23T05:29:57.270Z,101367.00
2023-06-23T05:32:26.067Z,101352.03
2023-06-23T05:34:59.431Z,101370.91
2023-06-23T05:37:29.076Z,101363.97
2023-06-23T05:39:59.174Z,101364.38
2023-06-23T05:42:27.140Z,101360.75
2023-06-23T05:44:54.830Z,101356.84
2023-06-23T05:47:26.335Z,101360.88
2023-06-23T05:49:56.696Z,101345.25
2023-06-23T05:52:24.192Z,101355.06
2023-06-23T05:54:55.955Z,101358.13
2023-06-23T05:57:28.813Z,101361.56
2023-06-23T06:00:14.897Z,101355.31
2023-06-23T06:02:47.350Z,101353.88
2023-06-23T06:05:18.849Z,101351.88
2023-06-23T06:07:48.100Z,101350.44
2023-06-23T06:10:16.623Z,101341.91
2023-06-23T06:12:49.518Z,101347.88
2023-06-23T06:15:18.539Z,101345.69
2023-06-23T06:17:46.555Z,101351.13
2023-06-23T06:20:16.191Z,101347.56
2023-06-23T06:22:45.652Z,101340.28
2023-06-23T06:25:14.678Z,101355.84
2023-06-23T06:27:45.765Z,101356.88
2023-06-23T06:30:13.517Z,101348.25
2023-06-23T06:32:42.376Z,101340.53
2023-06-23T06:35:11.874Z,101337.75
2023-06-23T06:37:43.161Z,101342.00
2023-06-23T06:40:12.873Z,101349.72
2023-06-23T06:42:40.028Z,101354.44
2023-06-23T06:45:07.235Z,101358.63
2023-06-23T06:47:41.843Z,101354.84
2023-06-23T06:50:10.948Z,101348.19
2023-06-23T06:52:45.569Z,101350.28
2023-06-23T06:55:20.536Z,101355.19
2023-06-23T06:57:48.893Z,101356.91
2023-06-23T07:00:19.721Z,101371.97
2023-06-23T07:02:47.270Z,101358.78
2023-06-23T07:05:14.943Z,101369.41
2023-06-23T07:07:41.800Z,101360.13
2023-06-23T07:10:08.835Z,101365.72
2023-06-23T07:12:35.657Z,101374.41
2023-06-23T07:15:03.564Z,101358.72
2023-06-23T07:17:30.303Z,101361.25
2023-06-23T07:19:57.054Z,101372.50
2023-06-23T07:22:23.866Z,101364.88
2023-06-23T07:24:51.216Z,101361.81
2023-06-23T07:27:19.103Z,101367.69
2023-06-23T07:29:45.819Z,101361.94
2023-06-23T07:32:15.632Z,101366.44
2023-06-23T07:34:42.830Z,101360.16
2023-06-23T07:37:10.273Z,101358.41
2023-06-23T07:39:38.160Z,101363.22
2023-06-23T07:42:05.610Z,101373.25
2023-06-23T07:44:35.238Z,101370.72
2023-06-23T07:47:02.194Z,101348.91
2023-06-23T07:49:29.010Z,101359.09
2023-06-23T07:52:01.147Z,101361.97
2023-06-23T07:54:29.629Z,101360.94
2023-06-23T07:57:00.469Z,101359.16
2023-06-23T07:59:27.354Z,101361.31
2023-06-23T08:01:55.042Z,101361.41
2023-06-23T08:04:22.756Z,101358.03
2023-06-23T08:06:49.763Z,101363.38
2023-06-23T08:09:16.958Z,101363.97
2023-06-23T08:11:43.746Z,101356.78
2023-06-23T08:14:11.728Z,101363.84
2023-06-23T08:16:38.778Z,101372.41
2023-06-23T08:19:05.595Z,101377.88
2023-06-23T08:21:32.487Z,101377.38
2023-06-23T08:23:59.352Z,101364.81
2023-06-23T08:26:26.072Z,101359.94
2023-06-23T08:28:52.761Z,101359.69
2023-06-23T08:31:19.599Z,101363.84
2023-06-23T08:33:46.353Z,101362.69
2023-06-23T08:36:13.223Z,101363.06
2023-06-23T08:38:39.967Z,101371.28
2023-06-23T08:41:07.990Z,101375.31
2023-06-23T08:43:36.645Z,101382.84
2023-06-23T08:46:06.413Z,101363.63
2023-06-23T08:48:33.990Z,101368.75
2023-06-23T08:51:03.359Z,101358.31
2023-06-23T08:53:30.598Z,101350.84
2023-06-23T08:55:57.448Z,101338.75
2023-06-23T08:58:25.726Z,101349.69
2023-06-23T09:00:54.165Z,101353.88
2023-06-23T09:03:21.625Z,101341.38
2023-06-23T09:05:48.562Z,101336.50
2023-06-23T09:08:15.637Z,101340.13
2023-06-23T09:10:42.463Z,101347.63
2023-06-23T09:13:09.090Z,101349.56
2023-06-23T09:15:47.810Z,101348.47
2023-06-23T09:18:22.999Z,101349.25
2023-06-23T09:20:52.168Z,101348.22
2023-06-23T09:23:23.700Z,101358.72
2023-06-23T09:25:51.300Z,101360.53
2023-06-23T09:28:41.022Z,101358.53
2023-06-23T09:31:12.787Z,101349.00
2023-06-23T09:33:52.700Z,101346.16
2023-06-23T09:36:20.088Z,101327.16
2023-06-23T09:38:47.085Z,101334.75
2023-06-23T09:41:16.125Z,101324.16
2023-06-23T09:43:44.067Z,101347.03
2023-06-23T09:46:13.320Z,101343.13
2023-06-23T09:48:41.473Z,101334.88
2023-06-23T09:51:08.165Z,101342.34
2023-06-23T09:53:42.138Z,101341.47
2023-06-23T09:56:16.068Z,101324.66
2023-06-23T09:58:44.077Z,101337.25
2023-06-23T10:01:17.091Z,101324.72
2023-06-23T10:03:48.082Z,101336.53
2023-06-23T10:06:38.663Z,101334.06
2023-06-23T10:09:11.120Z,101319.41
2023-06-23T10:11:40.114Z,101321.28
2023-06-23T10:14:12.192Z,101335.19
2023-06-23T10:16:54.720Z,101330.97
2023-06-23T10:19:21.500Z,101323.47
2023-06-23T10:21:48.875Z,101322.72
2023-06-23T10:24:19.324Z,101329.34
2023-06-23T10:26:48.225Z,101325.63
2023-06-23T10:29:16.139Z,101324.44
2023-06-23T10:31:44.121Z,101321.00
2023-06-23T10:34:17.315Z,101321.41
2023-06-23T10:36:51.550Z,101317.91
2023-06-23T10:39:20.225Z,101315.38
2023-06-23T10:41:49.049Z,101309.69
2023-06-23T10:44:16.730Z,101311.56
2023-06-23T10:46:43.821Z,101306.91
2023-06-23T10:49:11.089Z,101295.97
2023-06-23T10:51:38.772Z,101299.91
2023-06-23T10:54:08.909Z,101294.25
2023-06-23T10:56:38.161Z,101300.75
2023-06-23T10:59:28.961Z,101293.66
2023-06-23T11:02:01.564Z,101292.44
2023-06-23T11:04:29.785Z,101291.38
2023-06-23T11:07:11.132Z,101282.81
2023-06-23T11:09:59.983Z,101286.53
2023-06-23T11:12:35.130Z,101270.63
2023-06-23T11:15:21.258Z,101275.41
2023-06-23T11:18:02.632Z,101273.63
2023-06-23T11:20:31.695Z,101277.03
2023-06-23T11:23:04.830Z,101273.81
2023-06-23T11:25:41.031Z,101261.94
2023-06-23T11:28:41.401Z,101269.72
2023-06-23T11:31:20.939Z,101256.63
2023-06-23T11:33:56.885Z,101263.38
2023-06-23T11:36:28.524Z,101245.75
2023-06-23T11:38:59.321Z,101255.66
2023-06-23T11:41:31.318Z,101250.59
2023-06-23T11:44:04.547Z,101251.16
2023-06-23T11:46:35.537Z,101240.72
2023-06-23T11:49:12.917Z,101244.66
2023-06-23T11:51:40.290Z,101258.09
2023-06-23T11:54:08.219Z,101262.47
2023-06-23T11:56:35.094Z,101245.75
2023-06-23T11:59:03.866Z,101238.28
2023-06-23T12:01:30.570Z,101241.31
2023-06-23T12:03:57.503Z,101229.28
2023-06-23T12:06:25.734Z,101238.91
2023-06-23T12:08:53.826Z,101225.84
2023-06-23T12:11:22.580Z,101240.00
2023-06-23T12:13:53.133Z,101222.28
2023-06-23T12:16:21.537Z,101241.88
2023-06-23T12:18:50.078Z,101230.38
2023-06-23T12:21:18.294Z,101233.38
2023-06-23T12:23:45.374Z,101236.88
2023-06-23T12:26:12.378Z,101229.72
2023-06-23T12:28:39.075Z,101234.09
2023-06-23T12:31:05.929Z,101234.09
2023-06-23T12:33:35.776Z,101234.50
2023-06-23T12:36:07.366Z,101247.00
2023-06-23T12:38:39.165Z,101244.59
2023-06-23T12:41:26.018Z,101218.00
2023-06-23T12:43:58.400Z,101243.47
2023-06-23T12:46:26.452Z,101242.22
2023-06-23T12:48:55.368Z,101240.50
2023-06-23T12:51:35.783Z,101244.00
2023-06-23T12:54:02.924Z,101229.84
2023-06-23T12:56:29.935Z,101244.09
2023-06-23T12:58:56.726Z,101237.16
2023-06-23T13:01:24.764Z,101248.84
2023-06-23T13:03:52.313Z,101233.16
2023-06-23T13:06:19.199Z,101240.44
2023-06-23T13:08:45.986Z,101232.66
2023-06-23T13:11:12.658Z,101229.75
2023-06-23T13:13:39.363Z,101236.00
2023-06-23T13:16:06.173Z,101237.38
2023-06-23T13:18:32.896Z,101241.16
2023-06-23T13:20:59.652Z,101238.19
2023-06-23T13:23:26.294Z,101233.91
2023-06-23T13:25:52.976Z,101238.22
2023-06-23T13:28:19.789Z,101237.59
2023-06-23T13:30:46.495Z,101237.03
2023-06-23T13:33:15.545Z,101246.94
2023-06-23T13:35:42.275Z,101240.09
2023-06-23T13:38:09.042Z,101221.06
2023-06-23T13:40:36.884Z,101235.44
2023-06-23T13:43:04.115Z,101224.47
2023-06-23T13:45:31.062Z,101219.91
2023-06-23T13:47:57.927Z,101225.41
2023-06-23T13:50:24.756Z,101226.34
2023-06-23T13:52:51.419Z,101235.31
2023-06-23T13:55:18.171Z,101229.41
2023-06-23T13:57:46.253Z,101220.78
2023-06-23T14:00:13.857Z,101227.03
2023-06-23T14:02:40.698Z,101218.38
2023-06-23T14:05:07.816Z,101210.16
2023-06-23T14:07:36.076Z,101237.88
2023-06-23T14:10:06.634Z,101234.56
2023-06-23T14:12:33.923Z,101251.94
2023-06-23T14:15:00.669Z,101239.38
2023-06-23T14:17:27.803Z,101232.44
2023-06-23T14:19:54.946Z,101247.41
2023-06-23T14:22:21.722Z,101247.63
2023-06-23T14:24:48.388Z,101230.19
2023-06-23T14:27:15.187Z,101242.69
2023-06-23T14:29:41.898Z,101220.72
2023-06-23T14:32:08.900Z,101232.47
2023-06-23T14:34:35.669Z,101218.38
2023-06-23T14:37:04.867Z,101228.66
2023-06-23T14:39:32.321Z,101222.84
2023-06-23T14:41:59.262Z,101232.66
2023-06-23T14:44:27.654Z,101229.72
2023-06-23T14:46:57.414Z,101227.22
2023-06-23T14:49:24.830Z,101216.81
2023-06-23T14:51:52.002Z,101225.28
2023-06-23T14:54:18.860Z,101228.41
2023-06-23T14:56:46.662Z,101214.66
2023-06-23T14:59:14.124Z,101219.88
2023-06-23T15:01:40.933Z,101229.06
2023-06-23T15:04:07.852Z,101220.50
2023-06-23T15:06:34.697Z,101219.31
2023-06-23T15:09:01.515Z,101204.38
2023-06-23T15:11:28.907Z,101198.63
2023-06-23T15:13:55.652Z,101213.91
2023-06-23T15:16:22.348Z,101207.22
2023-06-23T15:18:49.048Z,101212.03
2023-06-23T15:21:15.751Z,101202.44
2023-06-23T15:23:42.585Z,101208.81
2023-06-23T15:26:12.288Z,101213.81
2023-06-23T15:28:47.129Z,101211.53
2023-06-23T15:31:14.093Z,101219.44
2023-06-23T15:33:40.852Z,101211.03
2023-06-23T15:36:10.464Z,101211.31
2023-06-23T15:38:44.283Z,101217.16
2023-06-23T15:41:13.069Z,101220.63
2023-06-23T15:43:39.915Z,101215.34
2023-06-23T15:46:08.552Z,101218.41
2023-06-23T15:48:37.016Z,101218.13
2023-06-23T15:51:07.573Z,101209.63
2023-06-23T15:53:35.145Z,101199.31
2023-06-23T15:56:01.965Z,101194.72
2023-06-23T15:58:28.710Z,101217.63
2023-06-23T16:00:56.683Z,101204.63
2023-06-23T16:03:24.268Z,101200.78
2023-06-23T16:05:52.784Z,101204.84
2023-06-23T16:08:20.882Z,101199.72
2023-06-23T16:10:48.796Z,101201.78
2023-06-23T16:13:17.364Z,101198.06
2023-06-23T16:15:46.424Z,101184.81
2023-06-23T16:18:17.063Z,101189.13
2023-06-23T16:20:45.289Z,101176.53
2023-06-23T16:23:13.382Z,101166.06
2023-06-23T16:25:41.615Z,101179.63
2023-06-23T16:28:08.770Z,101176.78
2023-06-23T16:30:45.546Z,101174.31
2023-06-23T16:33:13.766Z,101174.03
2023-06-23T16:35:56.862Z,101189.25
2023-06-23T16:38:24.021Z,101171.13
2023-06-23T16:40:51.278Z,101178.47
2023-06-23T16:43:18.160Z,101171.13
2023-06-23T16:45:48.878Z,101173.63
2023-06-23T16:48:16.028Z,101162.56
2023-06-23T16:50:43.690Z,101169.34
2023-06-23T16:53:12.295Z,101172.53
2023-06-23T16:55:39.782Z,101170.25
2023-06-23T16:58:06.676Z,101161.91
2023-06-23T17:00:33.835Z,101163.91
2023-06-23T17:03:01.115Z,101169.34
2023-06-23T17:05:27.992Z,101157.53
2023-06-23T17:07:54.689Z,101168.16
2023-06-23T17:10:36.828Z,101166.97
2023-06-23T17:13:03.856Z,101150.38
2023-06-23T17:15:30.860Z,101148.84
2023-06-23T17:18:00.459Z,101150.13
2023-06-23T17:20:27.197Z,101143.63
2023-06-23T17:23:02.088Z,101141.75
2023-06-23T17:25:29.621Z,101145.78
2023-06-23T17:27:56.336Z,101141.66
2023-06-23T17:30:23.861Z,101145.69
2023-06-23T17:32:54.946Z,101143.47
2023-06-23T17:35:23.662Z,101146.56
2023-06-23T17:37:51.071Z,101141.81
2023-06-23T17:40:27.002Z,101134.44
2023-06-23T17:42:58.010Z,101130.03
2023-06-23T17:45:30.488Z,101134.31
2023-06-23T17:48:01.285Z,101113.28
2023-06-23T17:50:28.834Z,101125.28
2023-06-23T17:52:57.482Z,101117.66
2023-06-23T17:55:27.596Z,101111.88
2023-06-23T17:57:54.293Z,101111.78
2023-06-23T18:00:31.582Z,101122.72
2023-06-23T18:03:00.711Z,101117.56
2023-06-23T18:05:27.704Z,101113.66
2023-06-23T18:07:55.036Z,101112.88
2023-06-23T18:10:25.624Z,101112.34
2023-06-23T18:12:53.618Z,101110.09
2023-06-23T18:15:22.041Z,101108.97
2023-06-23T18:17:54.053Z,101109.88
2023-06-23T18:20:24.330Z,101109.44
2023-06-23T18:22:51.219Z,101114.53
2023-06-23T18:25:22.047Z,101108.44
2023-06-23T18:27:49.029Z,101104.97
2023-06-23T18:30:16.566Z,101114.47
2023-06-23T18:32:43.326Z,101101.50
2023-06-23T18:35:13.595Z,101112.94
2023-06-23T18:37:44.830Z,101110.00
2023-06-23T18:40:13.290Z,101101.78
2023-06-23T18:42:43.986Z,101097.19
2023-06-23T18:45:14.425Z,101090.78
2023-06-23T18:47:41.492Z,101095.47
2023-06-23T18:50:09.326Z,101091.78
2023-06-23T18:52:36.193Z,101091.78
2023-06-23T18:55:03.870Z,101081.75
2023-06-23T18:57:34.478Z,101075.72
2023-06-23T19:00:04.774Z,101081.19
2023-06-23T19:02:31.864Z,101083.06
2023-06-23T19:04:58.641Z,101088.28
2023-06-23T19:07:25.542Z,101077.34
2023-06-23T19:09:52.406Z,101074.34
2023-06-23T19:12:19.199Z,101089.28
2023-06-23T19:14:46.578Z,101082.06
2023-06-23T19:17:13.992Z,101076.44
2023-06-23T19:19:41.533Z,101080.09
2023-06-23T19:22:08.971Z,101077.94
2023-06-23T19:24:36.474Z,101082.25
2023-06-23T19:27:04.866Z,101083.59
2023-06-23T19:29:31.737Z,101082.97
2023-06-23T19:32:00.088Z,101073.72
2023-06-23T19:34:32.438Z,101090.50
2023-06-23T19:37:00.402Z,101070.75
2023-06-23T19:39:28.202Z,101085.22
2023-06-23T19:41:55.421Z,101084.25
2023-06-23T19:44:22.119Z,101072.00
2023-06-23T19:46:49.028Z,101061.75
2023-06-23T19:49:15.761Z,101060.53
2023-06-23T19:51:42.457Z,101060.47
2023-06-23T19:54:09.132Z,101064.59
2023-06-23T19:56:35.880Z,101066.22
2023-06-23T19:59:02.607Z,101072.31
2023-06-23T20:01:29.412Z,101070.66
2023-06-23T20:03:56.222Z,101063.84
2023-06-23T20:06:23.449Z,101071.81
2023-06-23T20:08:50.301Z,101068.00
2023-06-23T20:11:17.825Z,101046.31
2023-06-23T20:13:44.666Z,101053.34
2023-06-23T20:16:11.824Z,101062.47
2023-06-23T20:18:39.347Z,101068.03
2023-06-23T20:21:06.042Z,101061.00
2023-06-23T20:23:34.442Z,101068.97
2023-06-23T20:26:01.936Z,101071.41
2023-06-23T20:28:28.745Z,101079.91
2023-06-23T20:30:55.436Z,101065.88
2023-06-23T20:33:22.163Z,101075.66
2023-06-23T20:35:49.583Z,101085.44
2023-06-23T20:38:16.622Z,101085.44
2023-06-23T20:40:46.543Z,101084.06
2023-06-23T20:43:13.244Z,101080.94
2023-06-23T20:45:40.312Z,101071.47
2023-06-23T20:48:08.260Z,101085.09
2023-06-23T20:50:35.769Z,101090.41
2023-06-23T20:53:02.770Z,101076.06
2023-06-23T20:55:29.596Z,101078.94
2023-06-23T20:57:56.745Z,101074.78
2023-06-23T21:00:23.717Z,101068.47
2023-06-23T21:02:50.623Z,101070.19
2023-06-23T21:05:17.423Z,101069.56
2023-06-23T21:07:47.434Z,101062.16
2023-06-23T21:10:24.023Z,101064.69
2023-06-23T21:12:55.118Z,101062.44
2023-06-23T21:15:25.673Z,101058.75
2023-06-23T21:17:56.189Z,101061.19
2023-06-23T21:20:24.542Z,101058.66
2023-06-23T21:22:51.797Z,101048.97
2023-06-23T21:25:19.832Z,101062.16
2023-06-23T21:27:47.911Z,101062.78
2023-06-23T21:30:15.224Z,101056.50
2023-06-23T21:32:42.292Z,101055.66
2023-06-23T21:35:09.462Z,101057.13
2023-06-23T21:37:36.250Z,101060.13
2023-06-23T21:40:03.298Z,101062.19
2023-06-23T21:42:30.188Z,101049.41
2023-06-23T21:44:56.850Z,101059.72
2023-06-23T21:47:23.558Z,101043.06
2023-06-23T21:49:50.324Z,101053.19
2023-06-23T21:52:16.978Z,101048.97
2023-06-23T21:54:45.619Z,101050.84
2023-06-23T21:57:12.378Z,101037.94
2023-06-23T21:59:39.130Z,101041.78
2023-06-23T22:02:06.221Z,101028.19
2023-06-23T22:04:33.056Z,101039.88
2023-06-23T22:06:59.826Z,101038.06
2023-06-23T22:09:26.486Z,101038.22
2023-06-23T22:11:54.844Z,101047.44
2023-06-23T22:14:26.278Z,101046.63
2023-06-23T22:16:56.548Z,101039.47
2023-06-23T22:19:23.945Z,101030.34
2023-06-23T22:21:51.069Z,101032.22
2023-06-23T22:24:18.206Z,101041.59
2023-06-23T22:26:45.104Z,101039.69
2023-06-23T22:29:11.946Z,101023.53
2023-06-23T22:31:39.868Z,101036.63
2023-06-23T22:34:06.609Z,101013.00
2023-06-23T22:36:36.649Z,101033.41
2023-06-23T22:39:06.956Z,101030.66
2023-06-23T22:41:33.893Z,101036.84
2023-06-23T22:44:00.686Z,101029.72
2023-06-23T22:46:27.440Z,101020.00
2023-06-23T22:48:57.298Z,101017.47
2023-06-23T22:51:24.656Z,101030.34
2023-06-23T22:53:51.364Z,101029.16
2023-06-23T22:56:20.001Z,101020.66
2023-06-23T22:58:46.801Z,101025.97
2023-06-23T23:01:13.498Z,101014.09
2023-06-23T23:03:40.395Z,101017.72
2023-06-23T23:06:07.196Z,101017.19
2023-06-23T23:08:34.067Z,101013.41
2023-06-23T23:11:00.792Z,101009.34
2023-06-23T23:13:27.761Z,101008.72
2023-06-23T23:15:54.433Z,101017.09
2023-06-23T23:18:21.089Z,101006.59
2023-06-23T23:20:47.843Z,101014.03
2023-06-23T23:23:14.576Z,101005.03
2023-06-23T23:28:28.426Z,101003.28
2023-06-23T23:30:56.649Z,101003.38
2023-06-23T23:33:24.440Z,100993.41
2023-06-23T23:35:51.120Z,101002.44
2023-06-23T23:38:17.804Z,100996.38
2023-06-23T23:40:44.579Z,100988.09
2023-06-23T23:43:11.272Z,100999.22
2023-06-23T23:45:37.932Z,101001.84
2023-06-23T23:48:04.998Z,101006.19
2023-06-23T23:50:31.740Z,101004.28
2023-06-23T23:53:00.236Z,101007.47
2023-06-23T23:55:27.040Z,100997.34
2023-06-23T23:57:53.732Z,101012.09
